Terminal Aerodrome Forecast
Issued by NWS

Home | Current Version | Previous Version | Graphics & Text | Print | Product List | Glossary On
Versions: 1 2 3 4 5 6 7 8 9 10 11 12 13 14 15 16 17 18 19 20 21 22 23 24 25 26 27
750
FTUS43 KABR 281400 AAC
TAFATY
TAF AMD
KATY 281400Z 2814/2912 03005KT P6SM BKN006 OVC110
     FM281445 03005KT P6SM FEW006 BKN110
     FM281500 05006KT P6SM SCT110
     FM282000 05008KT P6SM SCT110
     FM290200 VRB03KT P6SM OVC050=

USA.gov is the U.S. government's official web portal to all federal, state and local government web resources and services.